sensor_id;sensor_type;location;lat;lon;timestamp;temperature;humidity
27848;DHT22;15212;48.830;8.730;2023-07-20T00:00:14;18.20;99.90
27848;DHT22;15212;48.830;8.730;2023-07-20T00:02:42;18.10;99.90
27848;DHT22;15212;48.830;8.730;2023-07-20T00:05:10;18.10;99.90
27848;DHT22;15212;48.830;8.730;2023-07-20T00:07:39;18.10;99.90
27848;DHT22;15212;48.830;8.730;2023-07-20T00:10:08;18.00;99.90
27848;DHT22;15212;48.830;8.730;2023-07-20T00:12:36;18.00;99.90
27848;DHT22;15212;48.830;8.730;2023-07-20T00:15:05;17.90;99.90
27848;DHT22;15212;48.830;8.730;2023-07-20T00:17:33;17.90;99.90
27848;DHT22;15212;48.830;8.730;2023-07-20T00:20:04;17.90;99.90
27848;DHT22;15212;48.830;8.730;2023-07-20T00:22:33;17.90;99.90
27848;DHT22;15212;48.830;8.730;2023-07-20T00:25:02;17.80;99.90
27848;DHT22;15212;48.830;8.730;2023-07-20T00:27:30;17.80;99.90
27848;DHT22;15212;48.830;8.730;2023-07-20T00:29:59;17.80;99.90
27848;DHT22;15212;48.830;8.730;2023-07-20T00:32:27;17.70;99.90
27848;DHT22;15212;48.830;8.730;2023-07-20T00:34:55;17.60;99.90
27848;DHT22;15212;48.830;8.730;2023-07-20T00:37:24;17.60;99.90
27848;DHT22;15212;48.830;8.730;2023-07-20T00:39:53;17.60;99.90
27848;DHT22;15212;48.830;8.730;2023-07-20T00:42:22;17.60;99.90
27848;DHT22;15212;48.830;8.730;2023-07-20T00:44:50;17.60;99.90
27848;DHT22;15212;48.830;8.730;2023-07-20T00:47:18;17.50;99.90
27848;DHT22;15212;48.830;8.730;2023-07-20T00:49:47;17.50;99.90
27848;DHT22;15212;48.830;8.730;2023-07-20T00:52:16;17.50;99.90
27848;DHT22;15212;48.830;8.730;2023-07-20T00:54:45;17.50;99.90
27848;DHT22;15212;48.830;8.730;2023-07-20T00:57:15;17.50;99.90
27848;DHT22;15212;48.830;8.730;2023-07-20T00:59:44;17.40;99.90
27848;DHT22;15212;48.830;8.730;2023-07-20T01:02:13;17.40;99.90
27848;DHT22;15212;48.830;8.730;2023-07-20T01:04:41;17.30;99.90
27848;DHT22;15212;48.830;8.730;2023-07-20T01:07:16;17.30;99.90
27848;DHT22;15212;48.830;8.730;2023-07-20T01:10:01;17.30;99.90
27848;DHT22;15212;48.830;8.730;2023-07-20T01:12:43;17.30;99.90
27848;DHT22;15212;48.830;8.730;2023-07-20T01:15:15;17.30;99.90
27848;DHT22;15212;48.830;8.730;2023-07-20T01:17:44;17.20;99.90
27848;DHT22;15212;48.830;8.730;2023-07-20T01:20:18;17.20;99.90
27848;DHT22;15212;48.830;8.730;2023-07-20T01:23:13;17.20;99.90
27848;DHT22;15212;48.830;8.730;2023-07-20T01:26:27;17.20;99.90
27848;DHT22;15212;48.830;8.730;2023-07-20T01:32:17;17.10;99.90
27848;DHT22;15212;48.830;8.730;2023-07-20T01:34:48;17.00;99.90
27848;DHT22;15212;48.830;8.730;2023-07-20T01:37:18;17.00;99.90
27848;DHT22;15212;48.830;8.730;2023-07-20T01:39:47;16.90;99.90
27848;DHT22;15212;48.830;8.730;2023-07-20T01:42:15;16.90;99.90
27848;DHT22;15212;48.830;8.730;2023-07-20T01:44:43;16.90;99.90
27848;DHT22;15212;48.830;8.730;2023-07-20T01:47:12;16.90;99.90
27848;DHT22;15212;48.830;8.730;2023-07-20T01:49:40;16.80;99.90
27848;DHT22;15212;48.830;8.730;2023-07-20T01:52:08;16.80;99.90
27848;DHT22;15212;48.830;8.730;2023-07-20T01:54:37;16.80;99.90
27848;DHT22;15212;48.830;8.730;2023-07-20T01:57:05;16.70;99.90
27848;DHT22;15212;48.830;8.730;2023-07-20T01:59:34;16.80;99.90
27848;DHT22;15212;48.830;8.730;2023-07-20T02:02:02;16.70;99.90
27848;DHT22;15212;48.830;8.730;2023-07-20T02:04:30;16.70;99.90
27848;DHT22;15212;48.830;8.730;2023-07-20T02:06:59;16.60;99.90
27848;DHT22;15212;48.830;8.730;2023-07-20T02:09:27;16.60;99.90
27848;DHT22;15212;48.830;8.730;2023-07-20T02:11:56;16.60;99.90
27848;DHT22;15212;48.830;8.730;2023-07-20T02:14:24;16.60;99.90
27848;DHT22;15212;48.830;8.730;2023-07-20T02:16:53;16.50;99.90
27848;DHT22;15212;48.830;8.730;2023-07-20T02:19:24;16.50;99.90
27848;DHT22;15212;48.830;8.730;2023-07-20T02:21:53;16.40;99.90
27848;DHT22;15212;48.830;8.730;2023-07-20T02:24:21;16.40;99.90
27848;DHT22;15212;48.830;8.730;2023-07-20T02:26:51;16.40;99.90
27848;DHT22;15212;48.830;8.730;2023-07-20T02:29:19;16.40;99.90
27848;DHT22;15212;48.830;8.730;2023-07-20T02:31:48;16.30;99.90
27848;DHT22;15212;48.830;8.730;2023-07-20T02:34:16;16.30;99.90
27848;DHT22;15212;48.830;8.730;2023-07-20T02:36:45;16.30;99.90
27848;DHT22;15212;48.830;8.730;2023-07-20T02:39:14;16.20;99.90
27848;DHT22;15212;48.830;8.730;2023-07-20T02:41:43;16.20;99.90
27848;DHT22;15212;48.830;8.730;2023-07-20T02:44:11;16.20;99.90
27848;DHT22;15212;48.830;8.730;2023-07-20T02:46:41;16.10;99.90
27848;DHT22;15212;48.830;8.730;2023-07-20T02:49:09;16.10;99.90
27848;DHT22;15212;48.830;8.730;2023-07-20T02:51:38;16.10;99.90
27848;DHT22;15212;48.830;8.730;2023-07-20T02:54:07;16.20;99.90
27848;DHT22;15212;48.830;8.730;2023-07-20T02:56:35;16.10;99.90
27848;DHT22;15212;48.830;8.730;2023-07-20T02:59:04;16.10;99.90
27848;DHT22;15212;48.830;8.730;2023-07-20T03:01:32;16.00;99.90
27848;DHT22;15212;48.830;8.730;2023-07-20T03:04:00;16.10;99.90
27848;DHT22;15212;48.830;8.730;2023-07-20T03:06:30;16.00;99.90
27848;DHT22;15212;48.830;8.730;2023-07-20T03:08:58;16.00;99.90
27848;DHT22;15212;48.830;8.730;2023-07-20T03:11:27;16.00;99.90
27848;DHT22;15212;48.830;8.730;2023-07-20T03:13:56;16.00;99.90
27848;DHT22;15212;48.830;8.730;2023-07-20T03:16:24;16.00;99.90
27848;DHT22;15212;48.830;8.730;2023-07-20T03:18:53;16.00;99.90
27848;DHT22;15212;48.830;8.730;2023-07-20T03:21:21;16.00;99.90
27848;DHT22;15212;48.830;8.730;2023-07-20T03:23:50;15.90;99.90
27848;DHT22;15212;48.830;8.730;2023-07-20T03:26:18;15.90;99.90
27848;DHT22;15212;48.830;8.730;2023-07-20T03:28:47;15.90;99.90
27848;DHT22;15212;48.830;8.730;2023-07-20T03:31:16;15.90;99.90
27848;DHT22;15212;48.830;8.730;2023-07-20T03:33:44;15.90;99.90
27848;DHT22;15212;48.830;8.730;2023-07-20T03:36:13;15.80;99.90
27848;DHT22;15212;48.830;8.730;2023-07-20T03:38:41;15.80;99.90
27848;DHT22;15212;48.830;8.730;2023-07-20T03:41:09;15.80;99.90
27848;DHT22;15212;48.830;8.730;2023-07-20T03:43:38;15.70;99.90
27848;DHT22;15212;48.830;8.730;2023-07-20T03:46:06;15.70;99.90
27848;DHT22;15212;48.830;8.730;2023-07-20T03:48:35;15.60;99.90
27848;DHT22;15212;48.830;8.730;2023-07-20T03:51:03;15.60;99.90
27848;DHT22;15212;48.830;8.730;2023-07-20T03:53:32;15.50;99.90
27848;DHT22;15212;48.830;8.730;2023-07-20T03:56:00;15.50;99.90
27848;DHT22;15212;48.830;8.730;2023-07-20T03:58:29;15.50;99.90
27848;DHT22;15212;48.830;8.730;2023-07-20T04:00:58;15.50;99.90
27848;DHT22;15212;48.830;8.730;2023-07-20T04:03:26;15.40;99.90
27848;DHT22;15212;48.830;8.730;2023-07-20T04:05:55;15.40;99.90
27848;DHT22;15212;48.830;8.730;2023-07-20T04:08:24;15.50;99.90
27848;DHT22;15212;48.830;8.730;2023-07-20T04:10:53;15.40;99.90
27848;DHT22;15212;48.830;8.730;2023-07-20T04:13:21;15.50;99.90
27848;DHT22;15212;48.830;8.730;2023-07-20T04:15:49;15.50;99.90
27848;DHT22;15212;48.830;8.730;2023-07-20T04:18:18;15.50;99.90
27848;DHT22;15212;48.830;8.730;2023-07-20T04:20:46;15.50;99.90
27848;DHT22;15212;48.830;8.730;2023-07-20T04:23:15;15.50;99.90
27848;DHT22;15212;48.830;8.730;2023-07-20T04:25:44;15.50;99.90
27848;DHT22;15212;48.830;8.730;2023-07-20T04:28:12;15.50;99.90
27848;DHT22;15212;48.830;8.730;2023-07-20T04:30:41;15.60;99.90
27848;DHT22;15212;48.830;8.730;2023-07-20T04:33:09;15.60;99.90
27848;DHT22;15212;48.830;8.730;2023-07-20T04:35:52;15.70;99.90
27848;DHT22;15212;48.830;8.730;2023-07-20T04:38:21;15.80;99.90
27848;DHT22;15212;48.830;8.730;2023-07-20T04:40:50;15.90;99.90
27848;DHT22;15212;48.830;8.730;2023-07-20T04:43:19;15.90;99.90
27848;DHT22;15212;48.830;8.730;2023-07-20T04:45:47;15.90;99.90
27848;DHT22;15212;48.830;8.730;2023-07-20T04:48:17;15.90;99.90
27848;DHT22;15212;48.830;8.730;2023-07-20T04:50:46;16.00;99.90
27848;DHT22;15212;48.830;8.730;2023-07-20T04:53:14;16.10;99.90
27848;DHT22;15212;48.830;8.730;2023-07-20T04:55:47;16.10;99.90
27848;DHT22;15212;48.830;8.730;2023-07-20T04:58:24;16.20;99.90
27848;DHT22;15212;48.830;8.730;2023-07-20T05:00:52;16.20;99.90
27848;DHT22;15212;48.830;8.730;2023-07-20T05:03:21;16.30;99.90
27848;DHT22;15212;48.830;8.730;2023-07-20T05:05:49;16.30;99.90
27848;DHT22;15212;48.830;8.730;2023-07-20T05:08:18;16.30;99.90
27848;DHT22;15212;48.830;8.730;2023-07-20T05:10:48;16.40;99.90
27848;DHT22;15212;48.830;8.730;2023-07-20T05:13:17;16.40;99.90
27848;DHT22;15212;48.830;8.730;2023-07-20T05:15:45;16.60;99.90
27848;DHT22;15212;48.830;8.730;2023-07-20T05:18:14;16.80;99.90
27848;DHT22;15212;48.830;8.730;2023-07-20T05:20:49;17.00;99.90
27848;DHT22;15212;48.830;8.730;2023-07-20T05:23:18;17.20;99.90
27848;DHT22;15212;48.830;8.730;2023-07-20T05:25:56;17.40;99.90
27848;DHT22;15212;48.830;8.730;2023-07-20T05:28:26;17.50;99.90
27848;DHT22;15212;48.830;8.730;2023-07-20T05:30:55;17.70;99.90
27848;DHT22;15212;48.830;8.730;2023-07-20T05:33:25;17.80;99.90
27848;DHT22;15212;48.830;8.730;2023-07-20T05:35:53;18.00;99.90
27848;DHT22;15212;48.830;8.730;2023-07-20T05:38:22;18.10;99.90
27848;DHT22;15212;48.830;8.730;2023-07-20T05:40:50;18.30;99.90
27848;DHT22;15212;48.830;8.730;2023-07-20T05:43:18;18.40;99.90
27848;DHT22;15212;48.830;8.730;2023-07-20T05:45:47;18.60;99.90
27848;DHT22;15212;48.830;8.730;2023-07-20T05:48:15;18.60;99.90
27848;DHT22;15212;48.830;8.730;2023-07-20T05:50:44;18.80;99.90
27848;DHT22;15212;48.830;8.730;2023-07-20T05:53:12;18.90;99.90
27848;DHT22;15212;48.830;8.730;2023-07-20T05:55:41;19.00;99.90
27848;DHT22;15212;48.830;8.730;2023-07-20T05:58:09;19.10;99.90
27848;DHT22;15212;48.830;8.730;2023-07-20T06:00:37;19.20;99.90
27848;DHT22;15212;48.830;8.730;2023-07-20T06:03:06;19.30;99.90
27848;DHT22;15212;48.830;8.730;2023-07-20T06:05:35;19.30;99.90
27848;DHT22;15212;48.830;8.730;2023-07-20T06:08:03;19.30;99.90
27848;DHT22;15212;48.830;8.730;2023-07-20T06:10:32;19.50;99.90
27848;DHT22;15212;48.830;8.730;2023-07-20T06:13:00;19.80;99.90
27848;DHT22;15212;48.830;8.730;2023-07-20T06:15:33;20.30;99.90
27848;DHT22;15212;48.830;8.730;2023-07-20T06:18:02;21.10;99.90
27848;DHT22;15212;48.830;8.730;2023-07-20T06:20:30;21.90;99.90
27848;DHT22;15212;48.830;8.730;2023-07-20T06:22:59;22.70;99.90
27848;DHT22;15212;48.830;8.730;2023-07-20T06:25:27;23.30;99.90
27848;DHT22;15212;48.830;8.730;2023-07-20T06:27:56;23.20;99.90
27848;DHT22;15212;48.830;8.730;2023-07-20T06:30:24;23.60;99.90
27848;DHT22;15212;48.830;8.730;2023-07-20T06:32:53;24.50;99.90
27848;DHT22;15212;48.830;8.730;2023-07-20T06:35:21;25.60;99.90
27848;DHT22;15212;48.830;8.730;2023-07-20T06:37:50;26.00;99.90
27848;DHT22;15212;48.830;8.730;2023-07-20T06:40:18;26.70;99.60
27848;DHT22;15212;48.830;8.730;2023-07-20T06:42:46;27.30;99.00
27848;DHT22;15212;48.830;8.730;2023-07-20T06:45:15;28.10;96.60
27848;DHT22;15212;48.830;8.730;2023-07-20T06:47:43;28.30;95.30
27848;DHT22;15212;48.830;8.730;2023-07-20T06:50:12;28.10;95.20
27848;DHT22;15212;48.830;8.730;2023-07-20T06:52:41;28.10;95.10
27848;DHT22;15212;48.830;8.730;2023-07-20T06:55:09;28.20;94.80
27848;DHT22;15212;48.830;8.730;2023-07-20T06:57:38;27.80;94.70
27848;DHT22;15212;48.830;8.730;2023-07-20T07:00:07;27.90;94.30
27848;DHT22;15212;48.830;8.730;2023-07-20T07:02:35;26.90;94.80
27848;DHT22;15212;48.830;8.730;2023-07-20T07:05:04;26.70;95.70
27848;DHT22;15212;48.830;8.730;2023-07-20T07:07:33;26.30;96.10
27848;DHT22;15212;48.830;8.730;2023-07-20T07:10:02;25.60;96.60
27848;DHT22;15212;48.830;8.730;2023-07-20T07:12:31;25.50;97.20
27848;DHT22;15212;48.830;8.730;2023-07-20T07:15:02;25.10;97.40
27848;DHT22;15212;48.830;8.730;2023-07-20T07:17:33;24.00;98.40
27848;DHT22;15212;48.830;8.730;2023-07-20T07:20:02;23.90;99.50
27848;DHT22;15212;48.830;8.730;2023-07-20T07:22:30;24.30;99.40
27848;DHT22;15212;48.830;8.730;2023-07-20T07:24:59;24.90;98.40
27848;DHT22;15212;48.830;8.730;2023-07-20T07:27:27;25.20;98.10
27848;DHT22;15212;48.830;8.730;2023-07-20T07:29:55;25.80;97.40
27848;DHT22;15212;48.830;8.730;2023-07-20T07:32:27;26.00;96.20
27848;DHT22;15212;48.830;8.730;2023-07-20T07:34:55;25.50;96.70
27848;DHT22;15212;48.830;8.730;2023-07-20T07:37:25;24.60;97.10
27848;DHT22;15212;48.830;8.730;2023-07-20T07:39:53;23.60;98.40
27848;DHT22;15212;48.830;8.730;2023-07-20T07:42:22;22.70;99.40
27848;DHT22;15212;48.830;8.730;2023-07-20T07:44:50;21.90;99.90
27848;DHT22;15212;48.830;8.730;2023-07-20T07:47:19;21.40;99.90
27848;DHT22;15212;48.830;8.730;2023-07-20T07:49:47;21.00;99.90
27848;DHT22;15212;48.830;8.730;2023-07-20T07:52:16;20.80;99.90
27848;DHT22;15212;48.830;8.730;2023-07-20T07:54:44;21.10;99.90
27848;DHT22;15212;48.830;8.730;2023-07-20T07:57:13;21.30;99.90
27848;DHT22;15212;48.830;8.730;2023-07-20T07:59:41;21.70;99.90
27848;DHT22;15212;48.830;8.730;2023-07-20T08:02:10;21.70;99.90
27848;DHT22;15212;48.830;8.730;2023-07-20T08:04:38;21.60;99.90
27848;DHT22;15212;48.830;8.730;2023-07-20T08:07:06;21.10;99.90
27848;DHT22;15212;48.830;8.730;2023-07-20T08:09:35;20.90;99.90
27848;DHT22;15212;48.830;8.730;2023-07-20T08:12:03;20.70;99.90
27848;DHT22;15212;48.830;8.730;2023-07-20T08:14:32;20.40;99.90
27848;DHT22;15212;48.830;8.730;2023-07-20T08:17:01;20.30;99.90
27848;DHT22;15212;48.830;8.730;2023-07-20T08:19:29;20.60;99.90
27848;DHT22;15212;48.830;8.730;2023-07-20T08:21:58;20.90;99.90
27848;DHT22;15212;48.830;8.730;2023-07-20T08:24:26;20.80;99.90
27848;DHT22;15212;48.830;8.730;2023-07-20T08:26:54;20.50;99.90
27848;DHT22;15212;48.830;8.730;2023-07-20T08:29:24;20.40;99.90
27848;DHT22;15212;48.830;8.730;2023-07-20T08:31:52;20.60;99.90
27848;DHT22;15212;48.830;8.730;2023-07-20T08:34:21;21.00;99.90
27848;DHT22;15212;48.830;8.730;2023-07-20T08:36:49;21.10;99.90
27848;DHT22;15212;48.830;8.730;2023-07-20T08:39:17;21.40;99.90
27848;DHT22;15212;48.830;8.730;2023-07-20T08:41:48;21.30;99.90
27848;DHT22;15212;48.830;8.730;2023-07-20T08:44:17;21.30;99.90
27848;DHT22;15212;48.830;8.730;2023-07-20T08:46:46;21.30;99.90
27848;DHT22;15212;48.830;8.730;2023-07-20T08:49:17;21.40;99.90
27848;DHT22;15212;48.830;8.730;2023-07-20T08:51:46;21.50;99.90
27848;DHT22;15212;48.830;8.730;2023-07-20T08:54:16;21.70;99.90
27848;DHT22;15212;48.830;8.730;2023-07-20T08:56:46;21.80;99.90
27848;DHT22;15212;48.830;8.730;2023-07-20T08:59:16;21.80;99.90
27848;DHT22;15212;48.830;8.730;2023-07-20T09:01:46;21.90;99.90
27848;DHT22;15212;48.830;8.730;2023-07-20T09:04:15;22.10;99.90
27848;DHT22;15212;48.830;8.730;2023-07-20T09:06:43;22.00;99.90
27848;DHT22;15212;48.830;8.730;2023-07-20T09:09:13;22.00;99.90
27848;DHT22;15212;48.830;8.730;2023-07-20T09:11:42;21.80;99.60
27848;DHT22;15212;48.830;8.730;2023-07-20T09:14:11;21.80;99.70
27848;DHT22;15212;48.830;8.730;2023-07-20T09:16:50;21.90;99.70
27848;DHT22;15212;48.830;8.730;2023-07-20T09:19:22;22.00;99.10
27848;DHT22;15212;48.830;8.730;2023-07-20T09:21:52;22.00;97.90
27848;DHT22;15212;48.830;8.730;2023-07-20T09:24:21;22.00;98.80
27848;DHT22;15212;48.830;8.730;2023-07-20T09:26:49;21.90;97.50
27848;DHT22;15212;48.830;8.730;2023-07-20T09:29:20;21.70;97.20
27848;DHT22;15212;48.830;8.730;2023-07-20T09:32:02;21.80;98.20
27848;DHT22;15212;48.830;8.730;2023-07-20T09:34:31;21.70;97.20
27848;DHT22;15212;48.830;8.730;2023-07-20T09:37:00;21.70;97.30
27848;DHT22;15212;48.830;8.730;2023-07-20T09:39:29;21.70;96.70
27848;DHT22;15212;48.830;8.730;2023-07-20T09:42:01;21.70;96.60
27848;DHT22;15212;48.830;8.730;2023-07-20T09:44:31;21.80;95.90
27848;DHT22;15212;48.830;8.730;2023-07-20T09:47:02;21.80;96.90
27848;DHT22;15212;48.830;8.730;2023-07-20T09:49:30;22.00;92.90
27848;DHT22;15212;48.830;8.730;2023-07-20T09:51:59;22.00;94.60
27848;DHT22;15212;48.830;8.730;2023-07-20T09:54:29;22.10;93.90
27848;DHT22;15212;48.830;8.730;2023-07-20T09:56:59;22.10;94.60
27848;DHT22;15212;48.830;8.730;2023-07-20T09:59:28;22.30;94.80
27848;DHT22;15212;48.830;8.730;2023-07-20T10:01:58;22.30;94.40
27848;DHT22;15212;48.830;8.730;2023-07-20T10:04:30;22.30;95.40
27848;DHT22;15212;48.830;8.730;2023-07-20T10:07:00;22.10;93.60
27848;DHT22;15212;48.830;8.730;2023-07-20T10:09:30;22.00;92.10
27848;DHT22;15212;48.830;8.730;2023-07-20T10:12:00;22.20;93.60
27848;DHT22;15212;48.830;8.730;2023-07-20T10:14:30;22.40;94.10
27848;DHT22;15212;48.830;8.730;2023-07-20T10:17:01;22.60;94.10
27848;DHT22;15212;48.830;8.730;2023-07-20T10:19:47;22.60;94.40
27848;DHT22;15212;48.830;8.730;2023-07-20T10:22:22;22.70;94.60
27848;DHT22;15212;48.830;8.730;2023-07-20T10:24:54;22.80;94.50
27848;DHT22;15212;48.830;8.730;2023-07-20T10:27:24;22.90;94.50
27848;DHT22;15212;48.830;8.730;2023-07-20T10:29:54;22.60;93.70
27848;DHT22;15212;48.830;8.730;2023-07-20T10:32:23;22.40;93.40
27848;DHT22;15212;48.830;8.730;2023-07-20T10:34:52;22.20;92.80
27848;DHT22;15212;48.830;8.730;2023-07-20T10:37:48;22.10;93.00
27848;DHT22;15212;48.830;8.730;2023-07-20T10:40:33;21.80;91.40
27848;DHT22;15212;48.830;8.730;2023-07-20T10:43:05;21.60;93.50
27848;DHT22;15212;48.830;8.730;2023-07-20T10:45:42;21.50;93.70
27848;DHT22;15212;48.830;8.730;2023-07-20T10:48:22;21.50;94.10
27848;DHT22;15212;48.830;8.730;2023-07-20T10:51:11;21.90;93.10
27848;DHT22;15212;48.830;8.730;2023-07-20T10:53:42;22.10;92.40
27848;DHT22;15212;48.830;8.730;2023-07-20T10:56:15;22.20;93.30
27848;DHT22;15212;48.830;8.730;2023-07-20T10:58:50;22.50;92.90
27848;DHT22;15212;48.830;8.730;2023-07-20T11:01:20;22.60;92.30
27848;DHT22;15212;48.830;8.730;2023-07-20T11:03:51;22.60;91.60
27848;DHT22;15212;48.830;8.730;2023-07-20T11:09:09;22.40;91.40
27848;DHT22;15212;48.830;8.730;2023-07-20T11:11:44;22.30;91.40
27848;DHT22;15212;48.830;8.730;2023-07-20T11:14:21;22.40;90.80
27848;DHT22;15212;48.830;8.730;2023-07-20T11:16:52;22.50;90.20
27848;DHT22;15212;48.830;8.730;2023-07-20T11:19:25;22.50;91.10
27848;DHT22;15212;48.830;8.730;2023-07-20T11:21:57;22.50;91.30
27848;DHT22;15212;48.830;8.730;2023-07-20T11:24:26;22.60;91.60
27848;DHT22;15212;48.830;8.730;2023-07-20T11:26:55;22.80;89.10
27848;DHT22;15212;48.830;8.730;2023-07-20T11:29:24;23.00;90.40
27848;DHT22;15212;48.830;8.730;2023-07-20T11:31:55;23.00;89.30
27848;DHT22;15212;48.830;8.730;2023-07-20T11:34:26;23.20;88.90
27848;DHT22;15212;48.830;8.730;2023-07-20T11:36:56;23.00;88.30
27848;DHT22;15212;48.830;8.730;2023-07-20T11:39:25;22.90;89.80
27848;DHT22;15212;48.830;8.730;2023-07-20T11:41:56;22.80;89.00
27848;DHT22;15212;48.830;8.730;2023-07-20T11:44:28;22.70;90.00
27848;DHT22;15212;48.830;8.730;2023-07-20T11:47:07;22.70;88.70
27848;DHT22;15212;48.830;8.730;2023-07-20T11:49:38;22.70;90.00
27848;DHT22;15212;48.830;8.730;2023-07-20T11:52:11;22.60;90.40
27848;DHT22;15212;48.830;8.730;2023-07-20T11:54:44;22.70;91.20
27848;DHT22;15212;48.830;8.730;2023-07-20T11:57:20;22.90;90.20
27848;DHT22;15212;48.830;8.730;2023-07-20T12:00:03;23.00;88.40
27848;DHT22;15212;48.830;8.730;2023-07-20T12:02:34;23.00;89.50
27848;DHT22;15212;48.830;8.730;2023-07-20T12:05:03;23.00;90.40
27848;DHT22;15212;48.830;8.730;2023-07-20T12:07:35;23.00;91.50
27848;DHT22;15212;48.830;8.730;2023-07-20T12:10:09;23.00;90.30
27848;DHT22;15212;48.830;8.730;2023-07-20T12:12:42;22.80;89.80
27848;DHT22;15212;48.830;8.730;2023-07-20T12:15:23;22.60;90.00
27848;DHT22;15212;48.830;8.730;2023-07-20T12:17:57;22.60;90.60
27848;DHT22;15212;48.830;8.730;2023-07-20T12:23:08;22.70;90.20
27848;DHT22;15212;48.830;8.730;2023-07-20T12:25:40;22.90;89.60
27848;DHT22;15212;48.830;8.730;2023-07-20T12:28:19;23.00;89.30
27848;DHT22;15212;48.830;8.730;2023-07-20T12:30:48;23.00;86.80
27848;DHT22;15212;48.830;8.730;2023-07-20T12:33:18;22.80;83.70
27848;DHT22;15212;48.830;8.730;2023-07-20T12:35:47;22.80;82.20
27848;DHT22;15212;48.830;8.730;2023-07-20T12:38:15;22.70;83.40
27848;DHT22;15212;48.830;8.730;2023-07-20T12:40:44;22.80;84.90
27848;DHT22;15212;48.830;8.730;2023-07-20T12:43:12;22.90;85.50
27848;DHT22;15212;48.830;8.730;2023-07-20T12:45:41;23.00;85.70
27848;DHT22;15212;48.830;8.730;2023-07-20T12:48:10;23.10;85.60
27848;DHT22;15212;48.830;8.730;2023-07-20T12:50:38;23.20;83.80
27848;DHT22;15212;48.830;8.730;2023-07-20T12:53:07;23.30;83.90
27848;DHT22;15212;48.830;8.730;2023-07-20T12:55:35;23.50;84.00
27848;DHT22;15212;48.830;8.730;2023-07-20T12:58:05;23.60;81.50
27848;DHT22;15212;48.830;8.730;2023-07-20T13:00:34;23.60;82.00
27848;DHT22;15212;48.830;8.730;2023-07-20T13:03:03;23.50;81.60
27848;DHT22;15212;48.830;8.730;2023-07-20T13:05:33;23.40;81.10
27848;DHT22;15212;48.830;8.730;2023-07-20T13:08:03;23.50;82.30
27848;DHT22;15212;48.830;8.730;2023-07-20T13:10:32;23.60;83.60
27848;DHT22;15212;48.830;8.730;2023-07-20T13:13:00;23.60;83.40
27848;DHT22;15212;48.830;8.730;2023-07-20T13:15:40;23.60;83.60
27848;DHT22;15212;48.830;8.730;2023-07-20T13:18:09;23.60;84.50
27848;DHT22;15212;48.830;8.730;2023-07-20T13:20:38;23.70;86.10
27848;DHT22;15212;48.830;8.730;2023-07-20T13:23:07;23.80;85.50
27848;DHT22;15212;48.830;8.730;2023-07-20T13:25:35;24.00;82.60
27848;DHT22;15212;48.830;8.730;2023-07-20T13:28:05;23.90;82.10
27848;DHT22;15212;48.830;8.730;2023-07-20T13:30:33;23.80;83.20
27848;DHT22;15212;48.830;8.730;2023-07-20T13:33:02;23.80;84.60
27848;DHT22;15212;48.830;8.730;2023-07-20T13:35:30;23.80;84.20
27848;DHT22;15212;48.830;8.730;2023-07-20T13:37:58;23.80;83.20
27848;DHT22;15212;48.830;8.730;2023-07-20T13:40:27;23.90;81.90
27848;DHT22;15212;48.830;8.730;2023-07-20T13:42:55;23.80;83.70
27848;DHT22;15212;48.830;8.730;2023-07-20T13:45:24;23.70;83.60
27848;DHT22;15212;48.830;8.730;2023-07-20T13:47:52;23.70;82.10
27848;DHT22;15212;48.830;8.730;2023-07-20T13:50:21;23.60;81.40
27848;DHT22;15212;48.830;8.730;2023-07-20T13:52:49;23.80;83.10
27848;DHT22;15212;48.830;8.730;2023-07-20T13:55:18;23.90;81.10
27848;DHT22;15212;48.830;8.730;2023-07-20T13:57:46;23.90;80.10
27848;DHT22;15212;48.830;8.730;2023-07-20T14:00:15;24.00;84.80
27848;DHT22;15212;48.830;8.730;2023-07-20T14:02:43;24.10;82.60
27848;DHT22;15212;48.830;8.730;2023-07-20T14:05:12;24.20;81.10
27848;DHT22;15212;48.830;8.730;2023-07-20T14:07:42;24.20;82.80
27848;DHT22;15212;48.830;8.730;2023-07-20T14:10:11;24.00;83.20
27848;DHT22;15212;48.830;8.730;2023-07-20T14:12:39;24.10;84.20
27848;DHT22;15212;48.830;8.730;2023-07-20T14:15:07;24.20;83.80
27848;DHT22;15212;48.830;8.730;2023-07-20T14:17:37;24.40;84.30
27848;DHT22;15212;48.830;8.730;2023-07-20T14:20:06;24.50;81.90
27848;DHT22;15212;48.830;8.730;2023-07-20T14:22:34;24.60;82.30
27848;DHT22;15212;48.830;8.730;2023-07-20T14:25:04;24.50;80.50
27848;DHT22;15212;48.830;8.730;2023-07-20T14:27:32;24.60;82.20
27848;DHT22;15212;48.830;8.730;2023-07-20T14:30:01;24.50;81.50
27848;DHT22;15212;48.830;8.730;2023-07-20T14:32:29;24.60;81.40
27848;DHT22;15212;48.830;8.730;2023-07-20T14:34:59;24.50;80.10
27848;DHT22;15212;48.830;8.730;2023-07-20T14:37:27;24.20;80.80
27848;DHT22;15212;48.830;8.730;2023-07-20T14:39:56;24.00;81.30
27848;DHT22;15212;48.830;8.730;2023-07-20T14:42:24;24.10;81.90
27848;DHT22;15212;48.830;8.730;2023-07-20T14:44:52;24.10;82.50
27848;DHT22;15212;48.830;8.730;2023-07-20T14:47:21;24.00;81.30
27848;DHT22;15212;48.830;8.730;2023-07-20T14:49:49;23.80;80.30
27848;DHT22;15212;48.830;8.730;2023-07-20T14:52:18;23.90;82.00
27848;DHT22;15212;48.830;8.730;2023-07-20T14:54:46;24.00;81.80
27848;DHT22;15212;48.830;8.730;2023-07-20T14:57:14;24.10;81.60
27848;DHT22;15212;48.830;8.730;2023-07-20T14:59:43;24.30;81.80
27848;DHT22;15212;48.830;8.730;2023-07-20T15:02:11;24.30;79.50
27848;DHT22;15212;48.830;8.730;2023-07-20T15:04:47;24.30;79.60
27848;DHT22;15212;48.830;8.730;2023-07-20T15:07:18;24.30;79.50
27848;DHT22;15212;48.830;8.730;2023-07-20T15:09:49;24.20;80.20
27848;DHT22;15212;48.830;8.730;2023-07-20T15:12:17;24.20;79.00
27848;DHT22;15212;48.830;8.730;2023-07-20T15:14:49;24.10;78.30
27848;DHT22;15212;48.830;8.730;2023-07-20T15:17:21;24.10;78.40
27848;DHT22;15212;48.830;8.730;2023-07-20T15:19:49;23.90;78.60
27848;DHT22;15212;48.830;8.730;2023-07-20T15:22:17;23.80;79.00
27848;DHT22;15212;48.830;8.730;2023-07-20T15:24:46;23.70;79.10
27848;DHT22;15212;48.830;8.730;2023-07-20T15:27:14;23.70;78.60
27848;DHT22;15212;48.830;8.730;2023-07-20T15:29:43;23.70;78.50
27848;DHT22;15212;48.830;8.730;2023-07-20T15:32:11;23.70;79.70
27848;DHT22;15212;48.830;8.730;2023-07-20T15:34:42;23.70;79.80
27848;DHT22;15212;48.830;8.730;2023-07-20T15:37:11;23.70;79.00
27848;DHT22;15212;48.830;8.730;2023-07-20T15:39:40;23.60;79.70
27848;DHT22;15212;48.830;8.730;2023-07-20T15:42:08;23.60;78.90
27848;DHT22;15212;48.830;8.730;2023-07-20T15:44:36;23.60;79.70
27848;DHT22;15212;48.830;8.730;2023-07-20T15:47:05;23.70;79.70
27848;DHT22;15212;48.830;8.730;2023-07-20T15:49:34;23.70;78.40
27848;DHT22;15212;48.830;8.730;2023-07-20T15:52:04;23.50;78.80
27848;DHT22;15212;48.830;8.730;2023-07-20T15:54:32;23.50;78.90